sensor_id;sensor_type;location;lat;lon;timestamp;P1;durP1;ratioP1;P2;durP2;ratioP2
1585;SDS011;786;48.718;9.514;2023-08-12T00:01:29;8.63;;;7.82;;
1585;SDS011;786;48.718;9.514;2023-08-12T00:03:55;7.68;;;6.30;;
1585;SDS011;786;48.718;9.514;2023-08-12T00:06:22;8.82;;;8.02;;
1585;SDS011;786;48.718;9.514;2023-08-12T00:08:48;7.65;;;6.95;;
1585;SDS011;786;48.718;9.514;2023-08-12T00:11:14;5.93;;;5.20;;
1585;SDS011;786;48.718;9.514;2023-08-12T00:13:42;6.60;;;5.97;;
1585;SDS011;786;48.718;9.514;2023-08-12T00:16:09;6.65;;;5.97;;
1585;SDS011;786;48.718;9.514;2023-08-12T00:18:35;8.32;;;7.22;;
1585;SDS011;786;48.718;9.514;2023-08-12T00:21:04;7.90;;;7.28;;
1585;SDS011;786;48.718;9.514;2023-08-12T00:23:32;9.23;;;8.35;;
1585;SDS011;786;48.718;9.514;2023-08-12T00:25:58;8.20;;;7.50;;
1585;SDS011;786;48.718;9.514;2023-08-12T00:28:25;8.15;;;7.55;;
1585;SDS011;786;48.718;9.514;2023-08-12T00:30:52;7.38;;;6.68;;
1585;SDS011;786;48.718;9.514;2023-08-12T00:33:19;7.05;;;6.35;;
1585;SDS011;786;48.718;9.514;2023-08-12T00:35:45;8.00;;;7.20;;
1585;SDS011;786;48.718;9.514;2023-08-12T00:38:11;6.45;;;5.72;;
1585;SDS011;786;48.718;9.514;2023-08-12T00:40:38;6.72;;;6.13;;
1585;SDS011;786;48.718;9.514;2023-08-12T00:43:04;5.82;;;5.30;;
1585;SDS011;786;48.718;9.514;2023-08-12T00:45:31;7.72;;;7.13;;
1585;SDS011;786;48.718;9.514;2023-08-12T00:47:58;6.88;;;6.28;;
1585;SDS011;786;48.718;9.514;2023-08-12T00:50:25;8.68;;;7.78;;
1585;SDS011;786;48.718;9.514;2023-08-12T00:52:51;7.63;;;6.95;;
1585;SDS011;786;48.718;9.514;2023-08-12T00:55:18;6.40;;;5.85;;
1585;SDS011;786;48.718;9.514;2023-08-12T00:57:44;7.82;;;6.78;;
1585;SDS011;786;48.718;9.514;2023-08-12T01:00:11;7.22;;;6.53;;
1585;SDS011;786;48.718;9.514;2023-08-12T01:02:39;8.93;;;8.02;;
1585;SDS011;786;48.718;9.514;2023-08-12T01:05:07;8.30;;;7.50;;
1585;SDS011;786;48.718;9.514;2023-08-12T01:07:34;9.85;;;8.95;;
1585;SDS011;786;48.718;9.514;2023-08-12T01:10:00;9.38;;;8.48;;
1585;SDS011;786;48.718;9.514;2023-08-12T01:12:27;10.20;;;9.18;;
1585;SDS011;786;48.718;9.514;2023-08-12T01:14:56;12.70;;;10.30;;
1585;SDS011;786;48.718;9.514;2023-08-12T01:17:25;11.25;;;9.73;;
1585;SDS011;786;48.718;9.514;2023-08-12T01:19:52;9.27;;;8.38;;
1585;SDS011;786;48.718;9.514;2023-08-12T01:22:21;10.02;;;9.15;;
1585;SDS011;786;48.718;9.514;2023-08-12T01:24:50;8.93;;;8.02;;
1585;SDS011;786;48.718;9.514;2023-08-12T01:27:17;9.48;;;7.68;;
1585;SDS011;786;48.718;9.514;2023-08-12T01:29:45;9.15;;;7.55;;
1585;SDS011;786;48.718;9.514;2023-08-12T01:32:14;11.75;;;8.55;;
1585;SDS011;786;48.718;9.514;2023-08-12T01:34:50;10.40;;;8.65;;
1585;SDS011;786;48.718;9.514;2023-08-12T01:37:21;10.95;;;9.60;;
1585;SDS011;786;48.718;9.514;2023-08-12T01:39:52;8.90;;;8.02;;
1585;SDS011;786;48.718;9.514;2023-08-12T01:42:18;8.75;;;7.57;;
1585;SDS011;786;48.718;9.514;2023-08-12T01:44:45;8.48;;;7.72;;
1585;SDS011;786;48.718;9.514;2023-08-12T01:47:12;6.70;;;6.10;;
1585;SDS011;786;48.718;9.514;2023-08-12T01:49:38;8.20;;;7.43;;
1585;SDS011;786;48.718;9.514;2023-08-12T01:52:05;8.10;;;7.13;;
1585;SDS011;786;48.718;9.514;2023-08-12T01:54:31;14.02;;;12.73;;
1585;SDS011;786;48.718;9.514;2023-08-12T01:57:01;10.80;;;8.55;;
1585;SDS011;786;48.718;9.514;2023-08-12T01:59:30;11.18;;;10.02;;
1585;SDS011;786;48.718;9.514;2023-08-12T02:01:56;9.48;;;8.57;;
1585;SDS011;786;48.718;9.514;2023-08-12T02:04:23;8.82;;;7.95;;
1585;SDS011;786;48.718;9.514;2023-08-12T02:06:49;8.45;;;7.65;;
1585;SDS011;786;48.718;9.514;2023-08-12T02:09:15;8.23;;;7.43;;
1585;SDS011;786;48.718;9.514;2023-08-12T02:11:42;8.00;;;6.30;;
1585;SDS011;786;48.718;9.514;2023-08-12T02:14:10;7.03;;;6.25;;
1585;SDS011;786;48.718;9.514;2023-08-12T02:16:37;7.90;;;7.20;;
1585;SDS011;786;48.718;9.514;2023-08-12T02:19:03;8.10;;;7.30;;
1585;SDS011;786;48.718;9.514;2023-08-12T02:21:30;10.27;;;9.10;;
1585;SDS011;786;48.718;9.514;2023-08-12T02:23:56;8.48;;;7.68;;
1585;SDS011;786;48.718;9.514;2023-08-12T02:26:23;8.25;;;7.45;;
1585;SDS011;786;48.718;9.514;2023-08-12T02:28:49;7.88;;;7.18;;
1585;SDS011;786;48.718;9.514;2023-08-12T02:31:19;7.95;;;7.00;;
1585;SDS011;786;48.718;9.514;2023-08-12T02:33:45;7.28;;;6.57;;
1585;SDS011;786;48.718;9.514;2023-08-12T02:36:12;8.77;;;6.88;;
1585;SDS011;786;48.718;9.514;2023-08-12T02:38:38;7.25;;;6.60;;
1585;SDS011;786;48.718;9.514;2023-08-12T02:41:04;9.30;;;6.45;;
1585;SDS011;786;48.718;9.514;2023-08-12T02:43:31;11.10;;;10.02;;
1585;SDS011;786;48.718;9.514;2023-08-12T02:45:57;7.95;;;7.18;;
1585;SDS011;786;48.718;9.514;2023-08-12T02:48:25;8.98;;;8.13;;
1585;SDS011;786;48.718;9.514;2023-08-12T02:50:51;8.68;;;7.78;;
1585;SDS011;786;48.718;9.514;2023-08-12T02:53:17;7.13;;;6.43;;
1585;SDS011;786;48.718;9.514;2023-08-12T02:55:44;7.10;;;6.40;;
1585;SDS011;786;48.718;9.514;2023-08-12T02:58:11;8.48;;;7.78;;
1585;SDS011;786;48.718;9.514;2023-08-12T03:00:40;8.13;;;7.38;;
1585;SDS011;786;48.718;9.514;2023-08-12T03:03:07;8.27;;;6.75;;
1585;SDS011;786;48.718;9.514;2023-08-12T03:05:34;10.68;;;9.85;;
1585;SDS011;786;48.718;9.514;2023-08-12T03:08:02;8.43;;;7.68;;
1585;SDS011;786;48.718;9.514;2023-08-12T03:10:28;9.73;;;8.15;;
1585;SDS011;786;48.718;9.514;2023-08-12T03:12:55;8.52;;;7.82;;
1585;SDS011;786;48.718;9.514;2023-08-12T03:15:21;7.85;;;7.15;;
1585;SDS011;786;48.718;9.514;2023-08-12T03:17:48;7.15;;;6.53;;
1585;SDS011;786;48.718;9.514;2023-08-12T03:20:14;7.00;;;6.05;;
1585;SDS011;786;48.718;9.514;2023-08-12T03:22:42;7.30;;;6.60;;
1585;SDS011;786;48.718;9.514;2023-08-12T03:25:08;7.22;;;6.55;;
1585;SDS011;786;48.718;9.514;2023-08-12T03:27:34;9.27;;;8.48;;
1585;SDS011;786;48.718;9.514;2023-08-12T03:30:01;8.95;;;8.25;;
1585;SDS011;786;48.718;9.514;2023-08-12T03:32:28;9.60;;;8.82;;
1585;SDS011;786;48.718;9.514;2023-08-12T03:34:54;8.65;;;7.75;;
1585;SDS011;786;48.718;9.514;2023-08-12T03:37:21;7.40;;;6.68;;
1585;SDS011;786;48.718;9.514;2023-08-12T03:39:48;7.25;;;6.55;;
1585;SDS011;786;48.718;9.514;2023-08-12T03:42:15;7.07;;;6.38;;
1585;SDS011;786;48.718;9.514;2023-08-12T03:44:42;6.50;;;5.90;;
1585;SDS011;786;48.718;9.514;2023-08-12T03:47:08;8.27;;;6.40;;
1585;SDS011;786;48.718;9.514;2023-08-12T03:49:35;10.30;;;9.40;;
1585;SDS011;786;48.718;9.514;2023-08-12T03:52:01;7.55;;;6.95;;
1585;SDS011;786;48.718;9.514;2023-08-12T03:54:28;8.50;;;7.70;;
1585;SDS011;786;48.718;9.514;2023-08-12T03:56:56;7.82;;;7.22;;
1585;SDS011;786;48.718;9.514;2023-08-12T03:59:22;8.60;;;7.80;;
1585;SDS011;786;48.718;9.514;2023-08-12T04:01:48;7.80;;;7.13;;
1585;SDS011;786;48.718;9.514;2023-08-12T04:04:15;6.38;;;5.78;;
1585;SDS011;786;48.718;9.514;2023-08-12T04:06:41;6.53;;;5.90;;
1585;SDS011;786;48.718;9.514;2023-08-12T04:09:07;6.40;;;5.80;;
1585;SDS011;786;48.718;9.514;2023-08-12T04:11:34;8.77;;;8.07;;
1585;SDS011;786;48.718;9.514;2023-08-12T04:14:02;7.43;;;6.78;;
1585;SDS011;786;48.718;9.514;2023-08-12T04:16:28;8.93;;;8.23;;
1585;SDS011;786;48.718;9.514;2023-08-12T04:18:55;8.15;;;7.35;;
1585;SDS011;786;48.718;9.514;2023-08-12T04:21:21;8.02;;;7.32;;
1585;SDS011;786;48.718;9.514;2023-08-12T04:23:48;7.18;;;6.05;;
1585;SDS011;786;48.718;9.514;2023-08-12T04:26:14;6.45;;;5.88;;
1585;SDS011;786;48.718;9.514;2023-08-12T04:28:40;6.97;;;6.38;;
1585;SDS011;786;48.718;9.514;2023-08-12T04:31:08;7.70;;;7.00;;
1585;SDS011;786;48.718;9.514;2023-08-12T04:33:34;10.98;;;9.88;;
1585;SDS011;786;48.718;9.514;2023-08-12T04:36:01;8.60;;;7.70;;
1585;SDS011;786;48.718;9.514;2023-08-12T04:38:27;10.60;;;9.77;;
1585;SDS011;786;48.718;9.514;2023-08-12T04:40:53;8.15;;;7.35;;
1585;SDS011;786;48.718;9.514;2023-08-12T04:43:20;7.70;;;6.93;;
1585;SDS011;786;48.718;9.514;2023-08-12T04:45:47;8.35;;;7.13;;
1585;SDS011;786;48.718;9.514;2023-08-12T04:48:15;9.20;;;8.20;;
1585;SDS011;786;48.718;9.514;2023-08-12T04:50:41;8.95;;;8.05;;
1585;SDS011;786;48.718;9.514;2023-08-12T04:53:08;8.75;;;7.45;;
1585;SDS011;786;48.718;9.514;2023-08-12T04:55:34;12.48;;;11.27;;
1585;SDS011;786;48.718;9.514;2023-08-12T04:58:01;9.73;;;8.82;;
1585;SDS011;786;48.718;9.514;2023-08-12T05:00:27;12.02;;;10.48;;
1585;SDS011;786;48.718;9.514;2023-08-12T05:02:54;10.57;;;9.48;;
1585;SDS011;786;48.718;9.514;2023-08-12T05:05:21;8.90;;;7.90;;
1585;SDS011;786;48.718;9.514;2023-08-12T05:07:48;9.13;;;8.23;;
1585;SDS011;786;48.718;9.514;2023-08-12T05:10:14;10.52;;;9.52;;
1585;SDS011;786;48.718;9.514;2023-08-12T05:12:41;17.55;;;15.95;;
1585;SDS011;786;48.718;9.514;2023-08-12T05:15:08;12.63;;;11.32;;
1585;SDS011;786;48.718;9.514;2023-08-12T05:17:35;10.18;;;9.20;;
1585;SDS011;786;48.718;9.514;2023-08-12T05:20:01;8.45;;;7.55;;
1585;SDS011;786;48.718;9.514;2023-08-12T05:22:29;9.57;;;8.65;;
1585;SDS011;786;48.718;9.514;2023-08-12T05:24:56;9.30;;;8.40;;
1585;SDS011;786;48.718;9.514;2023-08-12T05:27:22;8.18;;;7.38;;
1585;SDS011;786;48.718;9.514;2023-08-12T05:29:48;7.90;;;6.22;;
1585;SDS011;786;48.718;9.514;2023-08-12T05:32:15;7.85;;;7.15;;
1585;SDS011;786;48.718;9.514;2023-08-12T05:34:41;8.35;;;7.65;;
1585;SDS011;786;48.718;9.514;2023-08-12T05:37:07;7.93;;;7.25;;
1585;SDS011;786;48.718;9.514;2023-08-12T05:39:35;9.20;;;8.30;;
1585;SDS011;786;48.718;9.514;2023-08-12T05:42:01;9.82;;;7.90;;
1585;SDS011;786;48.718;9.514;2023-08-12T05:44:28;9.70;;;8.88;;
1585;SDS011;786;48.718;9.514;2023-08-12T05:46:54;9.38;;;8.57;;
1585;SDS011;786;48.718;9.514;2023-08-12T05:49:21;8.57;;;7.78;;
1585;SDS011;786;48.718;9.514;2023-08-12T05:51:47;8.30;;;7.53;;
1585;SDS011;786;48.718;9.514;2023-08-12T05:54:13;8.60;;;7.10;;
1585;SDS011;786;48.718;9.514;2023-08-12T05:56:41;9.20;;;8.30;;
1585;SDS011;786;48.718;9.514;2023-08-12T05:59:07;8.07;;;7.20;;
1585;SDS011;786;48.718;9.514;2023-08-12T06:01:34;9.60;;;8.80;;
1585;SDS011;786;48.718;9.514;2023-08-12T06:04:00;9.35;;;8.45;;
1585;SDS011;786;48.718;9.514;2023-08-12T06:06:27;9.18;;;8.38;;
1585;SDS011;786;48.718;9.514;2023-08-12T06:08:53;8.73;;;7.93;;
1585;SDS011;786;48.718;9.514;2023-08-12T06:11:19;7.32;;;6.60;;
1585;SDS011;786;48.718;9.514;2023-08-12T06:13:47;8.70;;;7.53;;
1585;SDS011;786;48.718;9.514;2023-08-12T06:16:13;9.98;;;6.70;;
1585;SDS011;786;48.718;9.514;2023-08-12T06:18:40;9.00;;;8.18;;
1585;SDS011;786;48.718;9.514;2023-08-12T06:21:07;7.60;;;6.93;;
1585;SDS011;786;48.718;9.514;2023-08-12T06:23:33;10.73;;;9.77;;
1585;SDS011;786;48.718;9.514;2023-08-12T06:26:00;7.93;;;7.28;;
1585;SDS011;786;48.718;9.514;2023-08-12T06:28:26;9.05;;;8.25;;
1585;SDS011;786;48.718;9.514;2023-08-12T06:30:54;9.23;;;8.13;;
1585;SDS011;786;48.718;9.514;2023-08-12T06:33:20;8.65;;;7.80;;
1585;SDS011;786;48.718;9.514;2023-08-12T06:35:46;8.70;;;6.60;;
1585;SDS011;786;48.718;9.514;2023-08-12T06:38:13;8.48;;;6.63;;
1585;SDS011;786;48.718;9.514;2023-08-12T06:40:39;8.82;;;7.93;;
1585;SDS011;786;48.718;9.514;2023-08-12T06:43:06;8.98;;;8.13;;
1585;SDS011;786;48.718;9.514;2023-08-12T06:45:33;10.45;;;9.45;;
1585;SDS011;786;48.718;9.514;2023-08-12T06:48:00;7.68;;;6.72;;
1585;SDS011;786;48.718;9.514;2023-08-12T06:50:28;8.40;;;7.70;;
1585;SDS011;786;48.718;9.514;2023-08-12T06:52:55;8.85;;;8.05;;
1585;SDS011;786;48.718;9.514;2023-08-12T06:55:22;8.23;;;7.45;;
1585;SDS011;786;48.718;9.514;2023-08-12T06:57:48;7.85;;;7.07;;
1585;SDS011;786;48.718;9.514;2023-08-12T07:00:14;8.30;;;7.40;;
1585;SDS011;786;48.718;9.514;2023-08-12T07:02:41;7.47;;;6.78;;
1585;SDS011;786;48.718;9.514;2023-08-12T07:05:09;9.38;;;8.55;;
1585;SDS011;786;48.718;9.514;2023-08-12T07:07:36;9.57;;;8.73;;
1585;SDS011;786;48.718;9.514;2023-08-12T07:10:03;8.40;;;7.65;;
1585;SDS011;786;48.718;9.514;2023-08-12T07:12:31;9.35;;;8.48;;
1585;SDS011;786;48.718;9.514;2023-08-12T07:14:57;8.85;;;8.02;;
1585;SDS011;786;48.718;9.514;2023-08-12T07:17:24;8.82;;;7.90;;
1585;SDS011;786;48.718;9.514;2023-08-12T07:19:50;11.45;;;7.00;;
1585;SDS011;786;48.718;9.514;2023-08-12T07:22:18;9.55;;;6.90;;
1585;SDS011;786;48.718;9.514;2023-08-12T07:24:45;9.77;;;8.13;;
1585;SDS011;786;48.718;9.514;2023-08-12T07:27:11;11.75;;;9.38;;
1585;SDS011;786;48.718;9.514;2023-08-12T07:29:38;10.32;;;9.32;;
1585;SDS011;786;48.718;9.514;2023-08-12T07:32:04;9.70;;;8.27;;
1585;SDS011;786;48.718;9.514;2023-08-12T07:34:31;12.05;;;10.85;;
1585;SDS011;786;48.718;9.514;2023-08-12T07:36:57;10.65;;;9.68;;
1585;SDS011;786;48.718;9.514;2023-08-12T07:39:25;8.85;;;7.95;;
1585;SDS011;786;48.718;9.514;2023-08-12T07:41:51;6.75;;;6.13;;
1585;SDS011;786;48.718;9.514;2023-08-12T07:44:18;8.35;;;7.55;;
1585;SDS011;786;48.718;9.514;2023-08-12T07:46:44;7.07;;;6.38;;
1585;SDS011;786;48.718;9.514;2023-08-12T07:49:10;6.78;;;6.18;;
1585;SDS011;786;48.718;9.514;2023-08-12T07:51:37;8.75;;;7.95;;
1585;SDS011;786;48.718;9.514;2023-08-12T07:54:03;9.43;;;8.63;;
1585;SDS011;786;48.718;9.514;2023-08-12T07:56:32;9.68;;;8.77;;
1585;SDS011;786;48.718;9.514;2023-08-12T07:58:59;8.65;;;7.88;;
1585;SDS011;786;48.718;9.514;2023-08-12T08:01:25;9.40;;;8.63;;
1585;SDS011;786;48.718;9.514;2023-08-12T08:03:51;9.50;;;7.43;;
1585;SDS011;786;48.718;9.514;2023-08-12T08:06:18;7.45;;;6.70;;
1585;SDS011;786;48.718;9.514;2023-08-12T08:08:44;6.20;;;5.57;;
1585;SDS011;786;48.718;9.514;2023-08-12T08:11:10;7.63;;;6.90;;
1585;SDS011;786;48.718;9.514;2023-08-12T08:13:38;8.45;;;7.75;;
1585;SDS011;786;48.718;9.514;2023-08-12T08:16:04;7.22;;;6.63;;
1585;SDS011;786;48.718;9.514;2023-08-12T08:18:31;9.45;;;8.65;;
1585;SDS011;786;48.718;9.514;2023-08-12T08:20:57;8.50;;;7.70;;
1585;SDS011;786;48.718;9.514;2023-08-12T08:23:24;7.90;;;7.25;;
1585;SDS011;786;48.718;9.514;2023-08-12T08:25:50;7.53;;;6.80;;
1585;SDS011;786;48.718;9.514;2023-08-12T08:28:16;7.40;;;6.65;;
1585;SDS011;786;48.718;9.514;2023-08-12T08:30:44;6.93;;;6.32;;
1585;SDS011;786;48.718;9.514;2023-08-12T08:33:11;7.18;;;6.30;;
1585;SDS011;786;48.718;9.514;2023-08-12T08:35:37;7.60;;;6.85;;
1585;SDS011;786;48.718;9.514;2023-08-12T08:38:04;7.70;;;7.03;;
1585;SDS011;786;48.718;9.514;2023-08-12T08:40:30;8.48;;;7.88;;
1585;SDS011;786;48.718;9.514;2023-08-12T08:42:57;6.70;;;6.20;;
1585;SDS011;786;48.718;9.514;2023-08-12T08:45:26;6.70;;;6.25;;
1585;SDS011;786;48.718;9.514;2023-08-12T08:47:54;7.55;;;6.85;;
1585;SDS011;786;48.718;9.514;2023-08-12T08:50:20;6.55;;;6.03;;
1585;SDS011;786;48.718;9.514;2023-08-12T08:52:47;7.60;;;6.25;;
1585;SDS011;786;48.718;9.514;2023-08-12T08:55:15;6.38;;;5.68;;
1585;SDS011;786;48.718;9.514;2023-08-12T08:57:41;8.07;;;6.45;;
1585;SDS011;786;48.718;9.514;2023-08-12T09:00:10;6.88;;;6.32;;
1585;SDS011;786;48.718;9.514;2023-08-12T09:02:37;8.05;;;7.35;;
1585;SDS011;786;48.718;9.514;2023-08-12T09:05:06;6.82;;;6.20;;
1585;SDS011;786;48.718;9.514;2023-08-12T09:07:33;8.38;;;7.68;;
1585;SDS011;786;48.718;9.514;2023-08-12T09:10:00;7.43;;;6.93;;
1585;SDS011;786;48.718;9.514;2023-08-12T09:12:29;7.18;;;6.57;;
1585;SDS011;786;48.718;9.514;2023-08-12T09:14:56;6.78;;;6.22;;
1585;SDS011;786;48.718;9.514;2023-08-12T09:17:22;7.15;;;6.63;;
1585;SDS011;786;48.718;9.514;2023-08-12T09:19:49;5.90;;;5.45;;
1585;SDS011;786;48.718;9.514;2023-08-12T09:22:17;5.68;;;5.20;;
1585;SDS011;786;48.718;9.514;2023-08-12T09:24:44;6.65;;;6.15;;
1585;SDS011;786;48.718;9.514;2023-08-12T09:27:10;6.45;;;5.93;;
1585;SDS011;786;48.718;9.514;2023-08-12T09:29:37;8.13;;;7.60;;
1585;SDS011;786;48.718;9.514;2023-08-12T09:32:09;6.85;;;6.25;;
1585;SDS011;786;48.718;9.514;2023-08-12T09:34:36;8.68;;;7.88;;
1585;SDS011;786;48.718;9.514;2023-08-12T09:37:02;6.80;;;6.20;;
1585;SDS011;786;48.718;9.514;2023-08-12T09:39:30;7.25;;;6.75;;
1585;SDS011;786;48.718;9.514;2023-08-12T09:41:56;6.00;;;5.45;;
1585;SDS011;786;48.718;9.514;2023-08-12T09:44:23;6.53;;;6.03;;
1585;SDS011;786;48.718;9.514;2023-08-12T09:46:50;6.88;;;4.90;;
1585;SDS011;786;48.718;9.514;2023-08-12T09:49:22;7.75;;;5.75;;
1585;SDS011;786;48.718;9.514;2023-08-12T09:51:48;5.45;;;4.95;;
1585;SDS011;786;48.718;9.514;2023-08-12T09:54:16;4.95;;;4.55;;
1585;SDS011;786;48.718;9.514;2023-08-12T09:56:46;8.63;;;6.43;;
1585;SDS011;786;48.718;9.514;2023-08-12T09:59:13;4.97;;;4.57;;
1585;SDS011;786;48.718;9.514;2023-08-12T10:01:41;5.57;;;5.07;;
1585;SDS011;786;48.718;9.514;2023-08-12T10:04:10;5.45;;;5.05;;
1585;SDS011;786;48.718;9.514;2023-08-12T10:06:37;6.25;;;5.68;;
1585;SDS011;786;48.718;9.514;2023-08-12T10:09:04;6.38;;;5.88;;
1585;SDS011;786;48.718;9.514;2023-08-12T10:11:33;7.57;;;7.00;;
1585;SDS011;786;48.718;9.514;2023-08-12T10:14:01;6.32;;;5.80;;
1585;SDS011;786;48.718;9.514;2023-08-12T10:16:29;6.40;;;5.95;;
1585;SDS011;786;48.718;9.514;2023-08-12T10:18:56;7.63;;;7.13;;
1585;SDS011;786;48.718;9.514;2023-08-12T10:21:24;6.05;;;5.57;;
1585;SDS011;786;48.718;9.514;2023-08-12T10:23:50;4.57;;;4.10;;
1585;SDS011;786;48.718;9.514;2023-08-12T10:26:17;5.40;;;4.53;;
1585;SDS011;786;48.718;9.514;2023-08-12T10:28:43;6.45;;;5.82;;
1585;SDS011;786;48.718;9.514;2023-08-12T10:31:11;5.70;;;5.28;;
1585;SDS011;786;48.718;9.514;2023-08-12T10:33:38;7.07;;;5.78;;
1585;SDS011;786;48.718;9.514;2023-08-12T10:36:05;5.43;;;4.97;;
1585;SDS011;786;48.718;9.514;2023-08-12T10:38:32;6.72;;;6.22;;
1585;SDS011;786;48.718;9.514;2023-08-12T10:41:18;5.57;;;5.07;;
1585;SDS011;786;48.718;9.514;2023-08-12T10:43:51;6.05;;;5.55;;
1585;SDS011;786;48.718;9.514;2023-08-12T10:46:26;5.43;;;4.93;;
1585;SDS011;786;48.718;9.514;2023-08-12T10:48:58;5.53;;;5.03;;
1585;SDS011;786;48.718;9.514;2023-08-12T10:51:46;7.45;;;6.85;;
1585;SDS011;786;48.718;9.514;2023-08-12T10:54:13;4.72;;;4.38;;
1585;SDS011;786;48.718;9.514;2023-08-12T10:59:50;6.13;;;5.65;;
1585;SDS011;786;48.718;9.514;2023-08-12T11:02:19;5.30;;;4.90;;
1585;SDS011;786;48.718;9.514;2023-08-12T11:04:48;4.35;;;4.05;;
1585;SDS011;786;48.718;9.514;2023-08-12T11:07:15;4.82;;;4.45;;
1585;SDS011;786;48.718;9.514;2023-08-12T11:09:42;6.32;;;5.90;;
1585;SDS011;786;48.718;9.514;2023-08-12T11:12:08;6.47;;;5.97;;
1585;SDS011;786;48.718;9.514;2023-08-12T11:14:46;6.63;;;6.22;;
1585;SDS011;786;48.718;9.514;2023-08-12T11:17:13;4.80;;;4.40;;
1585;SDS011;786;48.718;9.514;2023-08-12T11:19:42;5.80;;;5.40;;
1585;SDS011;786;48.718;9.514;2023-08-12T11:22:08;5.38;;;4.93;;
1585;SDS011;786;48.718;9.514;2023-08-12T11:24:37;6.05;;;5.45;;
1585;SDS011;786;48.718;9.514;2023-08-12T11:27:06;4.78;;;4.38;;
1585;SDS011;786;48.718;9.514;2023-08-12T11:29:35;6.15;;;5.65;;
1585;SDS011;786;48.718;9.514;2023-08-12T11:32:02;5.38;;;4.97;;
1585;SDS011;786;48.718;9.514;2023-08-12T11:34:28;6.13;;;5.63;;
1585;SDS011;786;48.718;9.514;2023-08-12T11:36:57;5.05;;;4.47;;
1585;SDS011;786;48.718;9.514;2023-08-12T11:39:24;5.95;;;5.40;;
1585;SDS011;786;48.718;9.514;2023-08-12T11:41:50;4.50;;;3.45;;
1585;SDS011;786;48.718;9.514;2023-08-12T11:44:17;4.10;;;3.75;;
1585;SDS011;786;48.718;9.514;2023-08-12T11:46:47;6.50;;;5.90;;
1585;SDS011;786;48.718;9.514;2023-08-12T11:49:14;4.65;;;4.20;;
1585;SDS011;786;48.718;9.514;2023-08-12T11:51:40;5.03;;;4.53;;
1585;SDS011;786;48.718;9.514;2023-08-12T11:54:08;4.90;;;4.30;;
1585;SDS011;786;48.718;9.514;2023-08-12T11:56:34;5.50;;;5.00;;
1585;SDS011;786;48.718;9.514;2023-08-12T11:59:01;5.10;;;4.70;;
1585;SDS011;786;48.718;9.514;2023-08-12T12:01:27;5.90;;;5.30;;
1585;SDS011;786;48.718;9.514;2023-08-12T12:03:54;5.93;;;4.07;;
1585;SDS011;786;48.718;9.514;2023-08-12T12:06:27;4.88;;;4.30;;
1585;SDS011;786;48.718;9.514;2023-08-12T12:08:55;5.20;;;3.45;;
1585;SDS011;786;48.718;9.514;2023-08-12T12:11:22;5.72;;;5.13;;
1585;SDS011;786;48.718;9.514;2023-08-12T12:13:50;3.72;;;3.40;;
1585;SDS011;786;48.718;9.514;2023-08-12T12:16:16;3.97;;;3.55;;
1585;SDS011;786;48.718;9.514;2023-08-12T12:18:43;4.65;;;4.25;;
1585;SDS011;786;48.718;9.514;2023-08-12T12:21:09;4.75;;;4.32;;
1585;SDS011;786;48.718;9.514;2023-08-12T12:23:36;6.35;;;5.30;;
1585;SDS011;786;48.718;9.514;2023-08-12T12:26:03;7.13;;;4.03;;
1585;SDS011;786;48.718;9.514;2023-08-12T12:28:31;4.22;;;3.80;;
1585;SDS011;786;48.718;9.514;2023-08-12T12:30:57;3.75;;;3.45;;
1585;SDS011;786;48.718;9.514;2023-08-12T12:33:24;5.53;;;3.90;;
1585;SDS011;786;48.718;9.514;2023-08-12T12:35:50;4.78;;;3.85;;
1585;SDS011;786;48.718;9.514;2023-08-12T12:38:17;6.88;;;3.20;;
1585;SDS011;786;48.718;9.514;2023-08-12T12:40:43;5.32;;;4.93;;
1585;SDS011;786;48.718;9.514;2023-08-12T12:43:09;4.32;;;4.03;;
1585;SDS011;786;48.718;9.514;2023-08-12T12:45:37;5.13;;;4.68;;
1585;SDS011;786;48.718;9.514;2023-08-12T12:48:04;6.70;;;5.15;;
1585;SDS011;786;48.718;9.514;2023-08-12T12:50:31;6.38;;;5.57;;
1585;SDS011;786;48.718;9.514;2023-08-12T12:52:57;4.35;;;3.70;;
1585;SDS011;786;48.718;9.514;2023-08-12T12:55:23;5.75;;;5.18;;
1585;SDS011;786;48.718;9.514;2023-08-12T12:57:50;5.32;;;4.78;;
1585;SDS011;786;48.718;9.514;2023-08-12T13:00:16;11.23;;;7.68;;
1585;SDS011;786;48.718;9.514;2023-08-12T13:02:44;10.82;;;7.70;;
1585;SDS011;786;48.718;9.514;2023-08-12T13:05:10;7.07;;;6.45;;
1585;SDS011;786;48.718;9.514;2023-08-12T13:07:37;6.38;;;5.78;;
1585;SDS011;786;48.718;9.514;2023-08-12T13:10:03;6.28;;;5.68;;
1585;SDS011;786;48.718;9.514;2023-08-12T13:12:30;6.25;;;5.63;;
1585;SDS011;786;48.718;9.514;2023-08-12T13:14:57;6.18;;;5.05;;
1585;SDS011;786;48.718;9.514;2023-08-12T13:17:24;6.65;;;5.95;;
1585;SDS011;786;48.718;9.514;2023-08-12T13:19:51;8.63;;;5.97;;
1585;SDS011;786;48.718;9.514;2023-08-12T13:22:18;5.13;;;4.63;;
1585;SDS011;786;48.718;9.514;2023-08-12T13:24:44;7.00;;;6.30;;
1585;SDS011;786;48.718;9.514;2023-08-12T13:27:11;7.28;;;6.68;;
1585;SDS011;786;48.718;9.514;2023-08-12T13:29:38;7.28;;;6.60;;
1585;SDS011;786;48.718;9.514;2023-08-12T13:32:04;6.88;;;6.28;;
1585;SDS011;786;48.718;9.514;2023-08-12T13:34:31;6.65;;;6.07;;
1585;SDS011;786;48.718;9.514;2023-08-12T13:36:58;6.75;;;4.63;;
1585;SDS011;786;48.718;9.514;2023-08-12T13:39:25;5.93;;;5.43;;
1585;SDS011;786;48.718;9.514;2023-08-12T13:41:51;5.30;;;4.80;;
1585;SDS011;786;48.718;9.514;2023-08-12T13:44:19;6.65;;;5.72;;
1585;SDS011;786;48.718;9.514;2023-08-12T13:46:46;5.90;;;5.40;;
1585;SDS011;786;48.718;9.514;2023-08-12T13:49:12;6.30;;;5.70;;
1585;SDS011;786;48.718;9.514;2023-08-12T13:51:39;7.10;;;6.32;;
1585;SDS011;786;48.718;9.514;2023-08-12T13:54:07;6.60;;;5.80;;
1585;SDS011;786;48.718;9.514;2023-08-12T13:56:33;7.63;;;7.00;;
1585;SDS011;786;48.718;9.514;2023-08-12T13:58:59;5.32;;;4.82;;
1585;SDS011;786;48.718;9.514;2023-08-12T14:01:25;8.68;;;6.90;;
1585;SDS011;786;48.718;9.514;2023-08-12T14:03:52;5.90;;;5.40;;
1585;SDS011;786;48.718;9.514;2023-08-12T14:06:18;6.57;;;5.28;;
1585;SDS011;786;48.718;9.514;2023-08-12T14:08:45;6.45;;;5.93;;
1585;SDS011;786;48.718;9.514;2023-08-12T14:11:13;6.65;;;6.05;;
1585;SDS011;786;48.718;9.514;2023-08-12T14:13:39;6.90;;;6.30;;
1585;SDS011;786;48.718;9.514;2023-08-12T14:16:06;6.68;;;6.07;;
1585;SDS011;786;48.718;9.514;2023-08-12T14:18:32;8.73;;;7.85;;
1585;SDS011;786;48.718;9.514;2023-08-12T14:20:58;5.13;;;4.63;;
1585;SDS011;786;48.718;9.514;2023-08-12T14:23:25;7.68;;;6.53;;
1585;SDS011;786;48.718;9.514;2023-08-12T14:25:51;7.07;;;6.47;;
1585;SDS011;786;48.718;9.514;2023-08-12T14:28:19;6.30;;;5.78;;
1585;SDS011;786;48.718;9.514;2023-08-12T14:30:45;6.75;;;6.13;;
1585;SDS011;786;48.718;9.514;2023-08-12T14:33:11;8.52;;;7.82;;
1585;SDS011;786;48.718;9.514;2023-08-12T14:35:38;6.78;;;6.18;;
1585;SDS011;786;48.718;9.514;2023-08-12T14:38:04;6.97;;;5.45;;
1585;SDS011;786;48.718;9.514;2023-08-12T14:40:30;6.68;;;6.10;;
1585;SDS011;786;48.718;9.514;2023-08-12T14:42:57;6.05;;;5.55;;
1585;SDS011;786;48.718;9.514;2023-08-12T14:45:24;6.53;;;5.93;;
1585;SDS011;786;48.718;9.514;2023-08-12T14:47:51;6.05;;;5.55;;
1585;SDS011;786;48.718;9.514;2023-08-12T14:50:17;5.57;;;5.18;;
1585;SDS011;786;48.718;9.514;2023-08-12T14:52:43;5.30;;;4.90;;
1585;SDS011;786;48.718;9.514;2023-08-12T14:55:10;5.80;;;5.38;;
1585;SDS011;786;48.718;9.514;2023-08-12T14:57:36;5.90;;;5.40;;
1585;SDS011;786;48.718;9.514;2023-08-12T15:00:03;5.30;;;4.80;;
1585;SDS011;786;48.718;9.514;2023-08-12T15:02:33;6.05;;;5.55;;
1585;SDS011;786;48.718;9.514;2023-08-12T15:04:59;5.88;;;5.38;;
1585;SDS011;786;48.718;9.514;2023-08-12T15:07:26;5.70;;;5.22;;
1585;SDS011;786;48.718;9.514;2023-08-12T15:09:52;5.25;;;4.13;;
1585;SDS011;786;48.718;9.514;2023-08-12T15:12:19;5.57;;;5.07;;
1585;SDS011;786;48.718;9.514;2023-08-12T15:14:46;6.63;;;6.03;;
1585;SDS011;786;48.718;9.514;2023-08-12T15:17:12;6.47;;;5.88;;
1585;SDS011;786;48.718;9.514;2023-08-12T15:19:40;5.35;;;4.75;;
1585;SDS011;786;48.718;9.514;2023-08-12T15:22:06;5.75;;;5.28;;
1585;SDS011;786;48.718;9.514;2023-08-12T15:24:32;5.45;;;4.45;;
1585;SDS011;786;48.718;9.514;2023-08-12T15:26:59;4.70;;;4.30;;
1585;SDS011;786;48.718;9.514;2023-08-12T15:29:25;5.70;;;5.30;;